createdAt,value
2017-07-03T00:00:47.986Z,14.60
2017-07-03T00:03:15.518Z,14.60
2017-07-03T00:05:43.839Z,14.60
2017-07-03T00:08:11.358Z,14.60
2017-07-03T00:10:39.647Z,14.60
2017-07-03T00:13:07.191Z,14.60
2017-07-03T00:15:35.479Z,14.60
2017-07-03T00:18:03.788Z,14.60
2017-07-03T00:20:31.318Z,14.60
2017-07-03T00:22:58.867Z,14.50
2017-07-03T00:25:26.396Z,14.40
2017-07-03T00:27:53.948Z,14.20
2017-07-03T00:30:21.474Z,14.20
2017-07-03T00:32:49.031Z,14.20
2017-07-03T00:35:16.555Z,14.10
2017-07-03T00:37:44.086Z,14.10
2017-07-03T00:40:11.631Z,14.20
2017-07-03T00:42:39.924Z,14.20
2017-07-03T00:45:07.471Z,14.20
2017-07-03T00:47:34.998Z,14.20
2017-07-03T00:50:02.544Z,14.20
2017-07-03T00:52:30.072Z,14.20
2017-07-03T00:54:57.615Z,14.20
2017-07-03T00:57:25.144Z,14.20
2017-07-03T00:59:52.695Z,14.20
2017-07-03T01:02:20.221Z,14.10
2017-07-03T01:04:48.517Z,14.20
2017-07-03T01:07:16.060Z,14.20
2017-07-03T01:09:44.351Z,14.30
2017-07-03T01:12:11.899Z,14.30
2017-07-03T01:14:39.422Z,14.30
2017-07-03T01:17:07.730Z,14.40
2017-07-03T01:19:36.019Z,14.50
2017-07-03T01:22:04.332Z,14.50
2017-07-03T01:24:31.856Z,14.50
2017-07-03T01:27:00.187Z,14.60
2017-07-03T01:29:27.707Z,14.60
2017-07-03T01:31:55.235Z,14.70
2017-07-03T01:34:22.783Z,14.70
2017-07-03T01:36:50.311Z,14.70
2017-07-03T01:39:17.858Z,14.80
2017-07-03T01:41:46.155Z,14.80
2017-07-03T01:44:13.704Z,14.80
2017-07-03T01:46:41.232Z,14.80
2017-07-03T01:49:08.777Z,14.70
2017-07-03T01:51:36.303Z,14.70
2017-07-03T01:54:03.858Z,14.70
2017-07-03T01:56:31.382Z,14.60
2017-07-03T01:58:59.682Z,14.40
2017-07-03T02:01:27.230Z,14.40
2017-07-03T02:03:55.520Z,14.30
2017-07-03T02:06:23.074Z,14.30
2017-07-03T02:08:51.374Z,14.10
2017-07-03T02:11:18.923Z,14.10
2017-07-03T02:13:46.452Z,14.00
2017-07-03T02:16:14.012Z,13.80
2017-07-03T02:18:41.539Z,13.80
2017-07-03T02:21:09.888Z,13.70
2017-07-03T02:23:37.436Z,13.60
2017-07-03T02:26:05.739Z,13.50
2017-07-03T02:28:33.290Z,13.50
2017-07-03T02:31:00.820Z,13.40
2017-07-03T02:33:28.371Z,13.40
2017-07-03T02:35:55.904Z,13.30
2017-07-03T02:38:23.448Z,13.30
2017-07-03T02:40:50.983Z,13.20
2017-07-03T02:43:19.274Z,13.10
2017-07-03T02:45:46.829Z,13.10
2017-07-03T02:48:15.131Z,13.00
2017-07-03T02:50:42.683Z,13.00
2017-07-03T02:53:10.208Z,13.00
2017-07-03T02:55:37.750Z,13.00
2017-07-03T02:58:05.272Z,13.10
2017-07-03T03:00:32.825Z,13.00
2017-07-03T03:03:00.358Z,13.00
2017-07-03T03:05:27.885Z,13.00
2017-07-03T03:07:56.214Z,13.00
2017-07-03T03:10:23.744Z,12.90
2017-07-03T03:12:51.290Z,13.00
2017-07-03T03:15:18.852Z,12.90
2017-07-03T03:17:46.444Z,12.90
2017-07-03T03:20:13.967Z,12.80
2017-07-03T03:22:41.541Z,12.80
2017-07-03T03:25:09.063Z,12.80
2017-07-03T03:27:36.596Z,12.70
2017-07-03T03:30:04.139Z,12.60
2017-07-03T03:32:31.666Z,12.60
2017-07-03T03:34:59.207Z,12.60
2017-07-03T03:37:26.738Z,12.60
2017-07-03T03:39:54.284Z,12.60
2017-07-03T03:42:21.815Z,12.70
2017-07-03T03:44:49.368Z,12.70
2017-07-03T03:47:16.900Z,12.80
2017-07-03T03:49:45.216Z,12.90
2017-07-03T03:52:12.742Z,12.90
2017-07-03T03:54:40.271Z,13.00
2017-07-03T03:57:07.830Z,13.00
2017-07-03T03:59:35.365Z,13.10
2017-07-03T04:02:02.915Z,13.20
2017-07-03T04:04:30.444Z,13.30
2017-07-03T04:06:57.991Z,13.50
2017-07-03T04:09:25.515Z,13.50
2017-07-03T04:11:53.059Z,13.50
2017-07-03T04:14:20.595Z,13.50
2017-07-03T04:16:48.924Z,13.60
2017-07-03T04:19:16.452Z,13.60
2017-07-03T04:21:44.750Z,14.00
2017-07-03T04:24:12.296Z,14.00
2017-07-03T04:26:39.822Z,14.20
2017-07-03T04:29:07.369Z,14.40
2017-07-03T04:31:34.889Z,14.60
2017-07-03T04:34:02.438Z,14.80
2017-07-03T04:36:29.963Z,15.00
2017-07-03T04:38:58.317Z,15.40
2017-07-03T04:41:25.843Z,15.40
2017-07-03T04:43:53.687Z,15.60
2017-07-03T04:46:21.980Z,16.20
2017-07-03T04:48:50.325Z,16.20
2017-07-03T04:51:17.850Z,16.60
2017-07-03T04:53:45.375Z,16.80
2017-07-03T04:56:12.918Z,17.10
2017-07-03T04:58:40.443Z,17.50
2017-07-03T05:01:07.991Z,17.80
2017-07-03T05:03:35.523Z,18.10
2017-07-03T05:06:03.076Z,18.30
2017-07-03T05:08:31.373Z,18.60
2017-07-03T05:10:58.920Z,18.60
2017-07-03T05:13:26.458Z,18.90
2017-07-03T05:15:54.787Z,19.30
2017-07-03T05:18:22.319Z,19.30
2017-07-03T05:20:49.855Z,19.80
2017-07-03T05:23:17.403Z,20.20
2017-07-03T05:25:44.941Z,20.40
2017-07-03T05:28:12.483Z,20.80
2017-07-03T05:30:40.012Z,21.20
2017-07-03T05:33:07.567Z,21.70
2017-07-03T05:35:35.859Z,22.30
2017-07-03T05:38:03.407Z,22.30
2017-07-03T05:40:30.939Z,22.40
2017-07-03T05:43:16.213Z,22.80
2017-07-03T05:45:43.749Z,23.20
2017-07-03T05:48:11.299Z,23.50
2017-07-03T05:50:38.828Z,23.80
2017-07-03T05:53:06.379Z,24.10
2017-07-03T05:55:34.676Z,24.60
2017-07-03T05:58:02.226Z,24.50
2017-07-03T06:00:29.781Z,24.70
2017-07-03T06:02:57.303Z,24.60
2017-07-03T06:05:24.852Z,24.90
2017-07-03T06:07:52.384Z,25.10
2017-07-03T06:10:20.696Z,25.40
2017-07-03T06:12:48.222Z,25.40
2017-07-03T06:15:16.532Z,25.20
2017-07-03T06:17:44.068Z,25.20
2017-07-03T06:20:11.620Z,25.20
2017-07-03T06:22:39.937Z,24.90
2017-07-03T06:25:07.461Z,24.90
2017-07-03T06:27:35.773Z,25.80
2017-07-03T06:30:03.302Z,25.80
2017-07-03T06:32:30.844Z,26.20
2017-07-03T06:34:58.378Z,25.90
2017-07-03T06:37:25.927Z,25.10
2017-07-03T06:39:53.457Z,23.90
2017-07-03T06:42:21.023Z,22.70
2017-07-03T06:44:49.316Z,22.40
2017-07-03T06:47:16.851Z,22.40
2017-07-03T06:49:44.399Z,22.00
2017-07-03T06:52:11.941Z,21.10
2017-07-03T06:54:39.490Z,20.40
2017-07-03T06:57:07.017Z,19.80
2017-07-03T06:59:34.560Z,19.20
2017-07-03T07:02:02.092Z,19.70
2017-07-03T07:04:29.647Z,20.90
2017-07-03T07:06:57.172Z,22.20
2017-07-03T07:09:25.464Z,23.70
2017-07-03T07:11:53.774Z,23.30
2017-07-03T07:14:21.299Z,23.30
2017-07-03T07:16:49.610Z,23.90
2017-07-03T07:19:17.141Z,23.90
2017-07-03T07:21:44.683Z,24.90
2017-07-03T07:24:12.206Z,25.40
2017-07-03T07:26:40.537Z,24.60
2017-07-03T07:29:08.081Z,24.50
2017-07-03T07:31:35.609Z,24.20
2017-07-03T07:34:03.152Z,24.30
2017-07-03T07:36:30.679Z,24.50
2017-07-03T07:38:58.224Z,24.60
2017-07-03T07:41:25.746Z,25.10
2017-07-03T07:43:53.287Z,25.50
2017-07-03T07:46:20.823Z,25.50
2017-07-03T07:48:48.376Z,26.00
2017-07-03T07:51:15.900Z,25.70
2017-07-03T07:53:43.439Z,25.40
2017-07-03T07:56:10.993Z,25.30
2017-07-03T07:58:38.520Z,25.20
2017-07-03T08:01:06.062Z,25.30
2017-07-03T08:03:33.588Z,25.50
2017-07-03T08:06:01.131Z,25.80
2017-07-03T08:08:28.656Z,26.10
2017-07-03T08:10:56.202Z,25.50
2017-07-03T08:13:23.734Z,25.20
2017-07-03T08:15:51.278Z,24.80
2017-07-03T08:18:19.571Z,24.70
2017-07-03T08:20:47.880Z,24.70
2017-07-03T08:23:15.408Z,24.70
2017-07-03T08:25:44.442Z,24.50
2017-07-03T08:28:11.967Z,24.50
2017-07-03T08:30:39.488Z,24.60
2017-07-03T08:33:07.032Z,24.60
2017-07-03T08:35:34.560Z,24.80
2017-07-03T08:38:02.103Z,24.90
2017-07-03T08:40:29.619Z,24.90
2017-07-03T08:42:57.166Z,24.60
2017-07-03T08:45:24.692Z,24.60
2017-07-03T08:47:52.237Z,24.60
2017-07-03T08:50:19.767Z,24.70
2017-07-03T08:52:47.319Z,25.00
2017-07-03T08:55:14.843Z,25.40
2017-07-03T08:57:42.367Z,25.20
2017-07-03T09:00:09.916Z,25.40
2017-07-03T09:02:37.439Z,25.50
2017-07-03T09:05:04.995Z,25.70
2017-07-03T09:07:32.519Z,26.00
2017-07-03T09:10:00.064Z,26.30
2017-07-03T09:12:27.591Z,26.60
2017-07-03T09:14:55.924Z,27.10
2017-07-03T09:17:23.455Z,27.10
2017-07-03T09:19:50.998Z,26.80
2017-07-03T09:22:18.523Z,26.70
2017-07-03T09:24:46.074Z,26.90
2017-07-03T09:27:13.602Z,26.60
2017-07-03T09:29:41.133Z,26.30
2017-07-03T09:32:08.674Z,26.00
2017-07-03T09:34:36.967Z,26.00
2017-07-03T09:37:04.510Z,26.00
2017-07-03T09:39:32.800Z,26.40
2017-07-03T09:42:01.113Z,26.80
2017-07-03T09:44:28.639Z,26.80
2017-07-03T09:46:56.948Z,26.30
2017-07-03T09:49:24.473Z,26.20
2017-07-03T09:51:52.782Z,26.70
2017-07-03T09:54:20.311Z,26.60
2017-07-03T09:56:47.854Z,26.60
2017-07-03T09:59:15.388Z,26.60
2017-07-03T10:01:42.943Z,25.80
2017-07-03T10:04:10.471Z,25.00
2017-07-03T10:06:38.798Z,25.00
2017-07-03T10:09:06.327Z,25.00
2017-07-03T10:11:33.855Z,25.20
2017-07-03T10:14:02.184Z,25.50
2017-07-03T10:16:29.711Z,25.50
2017-07-03T10:18:57.259Z,25.60
2017-07-03T10:21:25.555Z,26.50
2017-07-03T10:23:53.104Z,26.50
2017-07-03T10:26:21.396Z,26.60
2017-07-03T10:28:48.943Z,26.60
2017-07-03T10:31:16.475Z,26.70
2017-07-03T10:33:44.023Z,26.80
2017-07-03T10:36:11.551Z,26.60
2017-07-03T10:38:39.111Z,26.00
2017-07-03T10:41:06.635Z,26.00
2017-07-03T10:43:34.163Z,25.70
2017-07-03T10:46:01.717Z,25.70
2017-07-03T10:48:30.009Z,25.50
2017-07-03T10:50:57.565Z,25.50
2017-07-03T10:53:25.087Z,25.80
2017-07-03T10:55:52.636Z,26.20
2017-07-03T10:58:20.164Z,26.40
2017-07-03T11:00:48.480Z,26.90
2017-07-03T11:03:16.005Z,26.90
2017-07-03T11:05:44.327Z,25.00
2017-07-03T11:08:11.852Z,25.00
2017-07-03T11:10:39.387Z,24.90
2017-07-03T11:13:06.932Z,25.10
2017-07-03T11:15:35.234Z,25.60
2017-07-03T11:18:02.777Z,25.60
2017-07-03T11:20:31.062Z,24.80
2017-07-03T11:22:59.375Z,25.40
2017-07-03T11:25:26.900Z,25.40
2017-07-03T11:27:55.209Z,26.30
2017-07-03T11:30:22.737Z,26.20
2017-07-03T11:32:51.049Z,26.90
2017-07-03T11:35:18.571Z,26.80
2017-07-03T11:37:46.123Z,27.30
2017-07-03T11:40:13.663Z,27.40
2017-07-03T11:42:41.955Z,26.60
2017-07-03T11:45:09.500Z,26.50
2017-07-03T11:47:37.023Z,26.50
2017-07-03T11:50:04.571Z,26.40
2017-07-03T11:52:32.100Z,26.80
2017-07-03T11:54:59.651Z,27.10
2017-07-03T11:57:27.178Z,27.20
2017-07-03T11:59:55.488Z,27.40
2017-07-03T12:02:23.014Z,27.40
2017-07-03T12:04:51.354Z,26.40
2017-07-03T12:07:18.884Z,26.40
2017-07-03T12:09:46.410Z,25.70
2017-07-03T12:12:14.730Z,26.30
2017-07-03T12:14:42.256Z,26.20
2017-07-03T12:17:09.802Z,25.50
2017-07-03T12:19:37.334Z,25.50
2017-07-03T12:22:04.876Z,25.80
2017-07-03T12:24:32.407Z,25.70
2017-07-03T12:27:00.723Z,25.40
2017-07-03T12:29:28.247Z,25.40
2017-07-03T12:31:55.791Z,25.10
2017-07-03T12:34:23.316Z,25.30
2017-07-03T12:36:50.863Z,25.70
2017-07-03T12:39:18.385Z,26.10
2017-07-03T12:41:45.943Z,26.60
2017-07-03T12:44:13.469Z,27.00
2017-07-03T12:46:40.995Z,27.30
2017-07-03T12:49:08.543Z,26.80
2017-07-03T12:51:36.068Z,26.80
2017-07-03T12:54:03.612Z,26.90
2017-07-03T12:56:31.141Z,27.00
2017-07-03T12:58:58.687Z,27.10
2017-07-03T13:01:26.211Z,26.80
2017-07-03T13:03:53.755Z,26.90
2017-07-03T13:06:21.292Z,26.80
2017-07-03T13:08:49.604Z,27.00
2017-07-03T13:11:17.130Z,27.00
2017-07-03T13:13:45.439Z,26.30
2017-07-03T13:16:12.964Z,26.30
2017-07-03T13:18:40.524Z,26.20
2017-07-03T13:21:08.815Z,26.80
2017-07-03T13:23:36.343Z,26.70
2017-07-03T13:26:03.884Z,27.00
2017-07-03T13:28:31.407Z,26.90
2017-07-03T13:30:58.956Z,26.70
2017-07-03T13:33:26.479Z,26.50
2017-07-03T13:35:54.023Z,26.60
2017-07-03T13:38:21.554Z,26.80
2017-07-03T13:40:49.103Z,26.70
2017-07-03T13:43:16.648Z,26.50
2017-07-03T13:45:44.196Z,26.30
2017-07-03T13:48:11.729Z,26.50
2017-07-03T13:50:39.301Z,26.60
2017-07-03T13:53:06.848Z,26.40
2017-07-03T13:55:34.378Z,26.50
2017-07-03T13:58:01.923Z,26.60
2017-07-03T14:00:29.455Z,26.60
2017-07-03T14:02:57.009Z,26.40
2017-07-03T14:05:24.538Z,26.60
2017-07-03T14:07:52.861Z,26.80
2017-07-03T14:10:20.392Z,26.80
2017-07-03T14:12:47.946Z,27.00
2017-07-03T14:15:15.476Z,26.70
2017-07-03T14:17:43.024Z,26.50
2017-07-03T14:20:10.551Z,26.60
2017-07-03T14:22:38.110Z,26.80
2017-07-03T14:25:05.631Z,27.10
2017-07-03T14:27:33.919Z,27.00
2017-07-03T14:30:01.473Z,27.00
2017-07-03T14:32:29.763Z,26.30
2017-07-03T14:34:57.314Z,26.30
2017-07-03T14:37:25.608Z,26.80
2017-07-03T14:39:53.152Z,26.80
2017-07-03T14:42:21.450Z,26.50
2017-07-03T14:44:49.010Z,26.40
2017-07-03T14:47:16.535Z,26.40
2017-07-03T14:49:44.071Z,26.50
2017-07-03T14:52:11.618Z,26.20
2017-07-03T14:54:39.140Z,26.00
2017-07-03T14:57:06.693Z,26.10
2017-07-03T14:59:34.221Z,26.10
2017-07-03T15:02:01.770Z,26.00
2017-07-03T15:04:29.294Z,26.00
2017-07-03T15:06:57.607Z,26.50
2017-07-03T15:09:25.135Z,26.50
2017-07-03T15:11:52.704Z,26.60
2017-07-03T15:14:20.239Z,26.60
2017-07-03T15:16:47.771Z,26.60
2017-07-03T15:19:15.320Z,26.50
2017-07-03T15:21:42.843Z,26.20
2017-07-03T15:24:11.157Z,26.40
2017-07-03T15:26:38.687Z,26.30
2017-07-03T15:29:06.235Z,26.40
2017-07-03T15:31:34.533Z,26.20
2017-07-03T15:34:02.080Z,26.20
2017-07-03T15:36:29.604Z,26.00
2017-07-03T15:38:57.159Z,25.80
2017-07-03T15:41:25.156Z,25.80
2017-07-03T15:43:53.523Z,25.50
2017-07-03T15:46:21.052Z,25.50
2017-07-03T15:48:48.578Z,25.50
2017-07-03T15:51:16.126Z,25.50
2017-07-03T15:53:44.432Z,25.30
2017-07-03T15:56:12.747Z,25.30
2017-07-03T15:58:40.271Z,25.30
2017-07-03T16:01:08.579Z,25.10
2017-07-03T16:03:36.110Z,25.00
2017-07-03T16:06:03.658Z,25.20
2017-07-03T16:08:31.184Z,25.20
2017-07-03T16:10:58.731Z,25.30
2017-07-03T16:13:26.258Z,25.30
2017-07-03T16:15:53.816Z,25.30
2017-07-03T16:18:21.344Z,25.30
2017-07-03T16:20:48.873Z,25.10
2017-07-03T16:23:16.438Z,25.00
2017-07-03T16:25:43.960Z,24.80
2017-07-03T16:28:11.506Z,24.80
2017-07-03T16:30:39.037Z,24.90
2017-07-03T16:33:06.583Z,24.90
2017-07-03T16:35:34.115Z,24.70
2017-07-03T16:38:01.659Z,24.50
2017-07-03T16:40:29.185Z,24.50
2017-07-03T16:42:56.742Z,24.50
2017-07-03T16:45:24.274Z,24.50
2017-07-03T16:47:51.920Z,24.60
2017-07-03T16:50:19.472Z,24.60
2017-07-03T16:52:47.056Z,24.60
2017-07-03T16:55:14.598Z,24.60
2017-07-03T16:57:42.124Z,24.60
2017-07-03T17:00:10.435Z,24.60
2017-07-03T17:02:37.967Z,24.60
2017-07-03T17:05:06.271Z,24.60
2017-07-03T17:07:33.796Z,24.50
2017-07-03T17:10:02.103Z,24.60
2017-07-03T17:12:29.627Z,24.60
2017-07-03T17:14:57.954Z,24.20
2017-07-03T17:17:25.480Z,24.20
2017-07-03T17:19:53.006Z,24.00
2017-07-03T17:22:20.555Z,23.80
2017-07-03T17:24:48.080Z,23.70
2017-07-03T17:27:15.644Z,23.60
2017-07-03T17:32:06.162Z,23.40
2017-07-03T17:34:33.689Z,23.20
2017-07-03T17:37:01.240Z,23.10
2017-07-03T17:39:28.769Z,23.00
2017-07-03T17:41:57.095Z,23.10
2017-07-03T17:44:24.724Z,23.00
2017-07-03T17:46:52.252Z,23.10
2017-07-03T17:49:19.800Z,23.10
2017-07-03T17:51:47.327Z,23.10
2017-07-03T17:54:14.871Z,23.10
2017-07-03T17:56:42.405Z,23.10
2017-07-03T17:59:10.722Z,23.10
2017-07-03T18:01:38.253Z,23.00
2017-07-03T18:04:06.565Z,23.00
2017-07-03T18:06:34.092Z,22.90
2017-07-03T18:09:02.415Z,22.90
2017-07-03T18:11:29.941Z,22.90
2017-07-03T18:13:57.467Z,22.90
2017-07-03T18:16:25.779Z,22.60
2017-07-03T18:18:53.319Z,22.60
2017-07-03T18:21:20.868Z,22.60
2017-07-03T18:23:49.156Z,22.50
2017-07-03T18:26:16.701Z,22.50
2017-07-03T18:28:44.232Z,22.50
2017-07-03T18:31:11.803Z,22.40
2017-07-03T18:33:39.324Z,22.30
2017-07-03T18:36:06.852Z,22.10
2017-07-03T18:38:34.403Z,22.00
2017-07-03T18:41:01.928Z,21.90
2017-07-03T18:43:29.476Z,21.70
2017-07-03T18:45:57.005Z,21.60
2017-07-03T18:48:24.556Z,21.50
2017-07-03T18:50:52.088Z,21.50
2017-07-03T18:53:19.634Z,21.50
2017-07-03T18:55:47.162Z,21.50
2017-07-03T18:58:15.476Z,21.50
2017-07-03T19:00:43.011Z,21.50
2017-07-03T19:03:10.573Z,21.40
2017-07-03T19:05:38.104Z,21.40
2017-07-03T19:08:05.627Z,21.30
2017-07-03T19:10:33.176Z,21.20
2017-07-03T19:13:00.699Z,21.00
2017-07-03T19:15:28.250Z,20.90
2017-07-03T19:17:55.783Z,20.80
2017-07-03T19:20:23.331Z,20.80
2017-07-03T19:22:51.630Z,20.70
2017-07-03T19:25:19.175Z,20.70
2017-07-03T19:27:47.464Z,20.70
2017-07-03T19:30:15.007Z,20.60
2017-07-03T19:32:42.537Z,20.60
2017-07-03T19:35:10.099Z,20.60
2017-07-03T19:37:37.629Z,20.50
2017-07-03T19:40:05.156Z,20.40
2017-07-03T19:42:32.703Z,20.10
2017-07-03T19:45:00.226Z,19.90
2017-07-03T19:47:27.767Z,19.70
2017-07-03T19:49:55.291Z,19.60
2017-07-03T19:52:22.835Z,19.70
2017-07-03T19:54:51.130Z,19.60
2017-07-03T19:57:18.689Z,19.60
2017-07-03T19:59:46.219Z,19.60
2017-07-03T20:02:14.514Z,19.60
2017-07-03T20:04:42.824Z,19.60
2017-07-03T20:07:10.349Z,19.60
2017-07-03T20:09:38.652Z,19.30
2017-07-03T20:12:06.183Z,19.30
2017-07-03T20:14:33.727Z,19.00
2017-07-03T20:17:01.254Z,18.70
2017-07-03T20:19:28.803Z,18.70
2017-07-03T20:21:56.327Z,18.70
2017-07-03T20:24:23.879Z,18.80
2017-07-03T20:26:51.407Z,18.80
2017-07-03T20:29:18.960Z,18.80
2017-07-03T20:31:46.498Z,18.80
2017-07-03T20:34:14.030Z,18.80
2017-07-03T20:36:41.583Z,18.80
2017-07-03T20:39:09.881Z,18.90
2017-07-03T20:41:37.434Z,18.90
2017-07-03T20:44:04.964Z,18.90
2017-07-03T20:46:33.285Z,18.90
2017-07-03T20:49:00.816Z,18.80
2017-07-03T20:51:29.132Z,18.60
2017-07-03T20:53:56.664Z,18.60
2017-07-03T20:56:24.211Z,18.40
2017-07-03T20:58:51.740Z,18.30
2017-07-03T21:01:19.293Z,18.20
2017-07-03T21:03:47.580Z,18.30
2017-07-03T21:06:15.108Z,18.20
2017-07-03T21:08:42.658Z,18.30
2017-07-03T21:11:10.188Z,18.30
2017-07-03T21:13:37.732Z,18.30
2017-07-03T21:16:05.257Z,18.30
2017-07-03T21:18:32.806Z,18.30
2017-07-03T21:21:00.335Z,18.30
2017-07-03T21:23:27.892Z,18.20
2017-07-03T21:25:56.188Z,18.10
2017-07-03T21:28:24.500Z,18.10
2017-07-03T21:30:52.031Z,18.10
2017-07-03T21:33:19.588Z,17.90
2017-07-03T21:35:47.118Z,17.70
2017-07-03T21:38:14.646Z,17.50
2017-07-03T21:40:42.192Z,17.30
2017-07-03T21:43:09.748Z,17.20
2017-07-03T21:45:37.297Z,17.20
2017-07-03T21:48:04.824Z,17.10
2017-07-03T21:50:33.141Z,17.00
2017-07-03T21:53:00.667Z,17.00
2017-07-03T21:55:28.990Z,16.90
2017-07-03T21:57:56.515Z,16.80
2017-07-03T22:00:24.811Z,16.80
2017-07-03T22:02:52.352Z,16.70
2017-07-03T22:05:20.639Z,16.70
2017-07-03T22:07:48.183Z,16.70
2017-07-03T22:10:16.471Z,16.60
2017-07-03T22:12:44.016Z,16.60
2017-07-03T22:15:12.308Z,16.30
2017-07-03T22:17:39.857Z,16.30
2017-07-03T22:20:07.380Z,16.20
2017-07-03T22:22:34.923Z,16.20
2017-07-03T22:25:03.215Z,16.10
2017-07-03T22:27:30.764Z,16.10
2017-07-03T22:29:59.075Z,16.10
2017-07-03T22:32:26.605Z,16.10
2017-07-03T22:34:54.918Z,16.10
2017-07-03T22:37:22.445Z,16.00
2017-07-03T22:39:50.754Z,16.00
2017-07-03T22:42:18.274Z,15.90
2017-07-03T22:44:45.818Z,15.80
2017-07-03T22:47:13.344Z,15.60
2017-07-03T22:49:41.657Z,15.40
2017-07-03T22:52:09.180Z,15.30
2017-07-03T22:54:37.481Z,15.40
2017-07-03T22:57:05.023Z,15.40
2017-07-03T22:59:32.552Z,15.40
2017-07-03T23:02:00.859Z,15.50
2017-07-03T23:04:28.392Z,15.40
2017-07-03T23:06:55.937Z,15.50
2017-07-03T23:09:23.462Z,15.50
2017-07-03T23:11:51.006Z,15.40
2017-07-03T23:14:19.290Z,15.40
2017-07-03T23:16:46.835Z,15.30
2017-07-03T23:19:15.129Z,15.30
2017-07-03T23:21:42.684Z,15.30
2017-07-03T23:24:10.213Z,15.30
2017-07-03T23:26:37.744Z,15.30
2017-07-03T23:29:05.292Z,15.30
2017-07-03T23:31:32.815Z,15.30
2017-07-03T23:34:00.364Z,15.10
2017-07-03T23:36:28.655Z,14.90
2017-07-03T23:38:56.205Z,14.90
2017-07-03T23:41:23.740Z,14.90
2017-07-03T23:43:51.287Z,14.90
2017-07-03T23:46:18.812Z,14.80
2017-07-03T23:48:47.123Z,14.60
2017-07-03T23:51:14.647Z,14.50
2017-07-03T23:53:42.195Z,14.50
2017-07-03T23:56:10.488Z,14.50
2017-07-03T23:58:38.798Z,14.50
